Flight Track Log - Related Links

Times and Time Zones

All times are in EDT time to prevent confusion due to time zone crossing. See the EJA643 flight status page for this flight to view local times or setup timezone preferences in your user account.

Time Position Orientation Groundspeed Altitude Reporting Facility
EDT Latitude Longitude Course Direction KTS MPH feet Rate Location/Type
Wed 04:00:21 PM 36.0481 -79.8206 58° Northeast 286 329 41,000  Level Washington Center
Wed 04:01:19 PM 36.1028 -79.7489 47° Northeast 286 329 9,700 -14,471 Descending Washington Center
Wed 04:02:20 PM 36.1594 -79.6747 47° Northeast 302 348 12,300 2,430 Climbing Washington Center
Wed 04:03:20 PM 36.2164 -79.5953 48° Northeast 307 353 14,600 2,441 Climbing Washington Center
Wed 04:04:00 PM 36.3632 -79.3886 50° Northeast  Level FlightAware Approximate
Wed 04:04:18 PM 36.2756 -79.5133 48° Northeast 307 353 17,100  Level Washington Center
Wed 04:05:00 PM 36.4265 -79.2805 58° Northeast  Level FlightAware Approximate
Wed 04:05:19 PM 36.3386 -79.4339 45° Northeast 315 362 19,100  Level Washington Center
Wed 04:06:19 PM 36.4019 -79.3392 50° Northeast 326 375 21,100 1,785 Climbing Washington Center
Wed 04:07:20 PM 36.4617 -79.2361 54° Northeast 347 399 22,700 942 Climbing Washington Center
Wed 04:08:20 PM 36.5233 -79.1278 55° Northeast 370 426 23,000 153 Climbing Washington Center
Wed 04:09:18 PM 36.5936 -79.0067 54° Northeast 401 461 23,000 202 Level Washington Center
Wed 04:10:19 PM 36.6572 -78.8931 55° Northeast 408 470 23,400 793 Climbing Washington Center
Wed 04:11:19 PM 36.7144 -78.7842 57° Northeast 408 470 24,600 1,425 Climbing Washington Center
Wed 04:13:20 PM 36.8436 -78.5456 56° Northeast 402 463 27,700 1,359 Climbing Washington Center
Wed 04:14:20 PM 36.9069 -78.4308 55° Northeast 402 463 28,700 1,412 Climbing Washington Center
Wed 04:15:19 PM 36.9656 -78.3267 55° Northeast 402 463 30,500 1,150 Climbing Washington Center
Wed 04:16:20 PM 37.0144 -78.2033 64° Northeast 397 457 31,000 248 Climbing Washington Center
Wed 04:17:20 PM 37.0486 -78.0614 73° East 402 463 31,000 254 Level Washington Center
Wed 04:18:18 PM 37.0808 -77.9114 75° East 416 479 31,500 1,261 Climbing Washington Center
Wed 04:19:19 PM 37.1128 -77.7692 74° East 428 493 33,500 1,918 Climbing Washington Center
Wed 04:20:20 PM 37.1442 -77.6397 73° East 412 474 35,400 1,426 Climbing Washington Center
Wed 04:21:21 PM 37.1714 -77.5103 75° East 390 449 36,400 1,059 Climbing Washington Center
Wed 04:22:19 PM 37.2006 -77.3806 74° East 385 443 37,500 1,160 Climbing Washington Center
Wed 04:23:20 PM 37.2339 -77.2353 74° East 385 443 38,700 1,091 Climbing Washington Center
Wed 04:24:20 PM 37.2628 -77.1003 75° East 394 453 39,700 1,059 Climbing Washington Center
Wed 04:25:19 PM 37.2936 -76.9572 75° East 400 460 40,800 655 Climbing Washington Center
Wed 04:26:19 PM 37.3222 -76.8192 75° East 410 472 41,000 100 Climbing Washington Center
Wed 04:27:19 PM 37.3550 -76.6761 74° East 437 503 41,000  Level Washington Center
Wed 04:28:21 PM 37.3875 -76.5303 74° East 437 503 41,000  Level Washington Center
Wed 04:29:18 PM 37.4219 -76.3789 74° East 437 503 41,000  Level Washington Center
Wed 04:30:20 PM 37.4539 -76.2303 75° East 437 503 41,000  Level Washington Center
Wed 04:31:20 PM 37.5358 -76.1078 50° Northeast 400 460 41,000  Level Washington Center
Wed 04:32:18 PM 37.6303 -76.0219 36° Northeast 406 467 41,000  Level Washington Center
Wed 04:33:19 PM 37.7283 -75.9331 36° Northeast 406 467 41,000  Level Washington Center
Wed 04:34:20 PM 37.8100 -75.8519 38° Northeast 414 476 41,000  Level Washington Center
Wed 04:35:18 PM 37.9164 -75.7656 33° Northeast 414 476 41,000  Level Washington Center
Wed 04:36:18 PM 38.0083 -75.6786 37° Northeast 414 476 41,000  Level Washington Center
Wed 04:37:20 PM 38.0875 -75.5997 38° Northeast 408 470 41,000  Level Washington Center
Wed 04:38:20 PM 38.1836 -75.5125 35° Northeast 408 470 41,000  Level Washington Center
Wed 04:39:18 PM 38.2897 -75.4250 33° Northeast 408 470 41,000  Level Washington Center
Wed 04:40:18 PM 38.3667 -75.3456 39° Northeast 408 470 41,000  Level Washington Center
Wed 04:41:19 PM 38.4603 -75.2603 35° Northeast 403 464 41,000  Level Washington Center
Wed 04:42:19 PM 38.5539 -75.1775 35° Northeast 408 470 41,000  Level Washington Center
Wed 04:43:20 PM 38.6494 -75.0947 34° Northeast 408 470 41,000  Level Washington Center
Wed 04:44:18 PM 38.7533 -75.0219 29° Northeast 408 470 41,000  Level Washington Center
Wed 04:45:19 PM 38.8531 -74.9544 28° Northeast 408 470 41,000 -992 Level Washington Center
Wed 04:46:19 PM 38.9569 -74.8922 25° Northeast 408 470 39,000 -1,884 Descending Washington Center
Wed 04:47:20 PM 39.0547 -74.8297 26° Northeast 402 463 37,200 -1,967 Descending Washington Center
Wed 04:48:21 PM 39.1375 -74.7619 32° Northeast 376 433 35,000 -2,288 Descending Washington Center
Wed 04:49:18 PM 39.2264 -74.6644 40° Northeast 385 443 32,700 -2,339 Descending Washington Center
Wed 04:50:19 PM 39.3175 -74.5694 39° Northeast 404 465 30,400 -2,313 Descending Washington Center
Wed 04:52:30 PM 39.5169 -74.3608 39° Northeast 414 476 25,300 -2,000 Descending New York Center
Wed 04:53:31 PM 39.6094 -74.2686 38° Northeast 409 471 24,000 -942 Descending New York Center
Wed 04:54:31 PM 39.6978 -74.1731 40° Northeast 403 464 23,400 -500 Descending New York Center
Wed 04:55:31 PM 39.8169 -74.1572 North 385 443 23,000 -203 Descending New York Center
Wed 04:56:29 PM 39.9225 -74.1164 17° North 385 443 23,000 -545 Level New York Center
Wed 04:58:27 PM 40.0653 -73.9094 48° Northeast 426 490 21,400 -1,045 Descending Boston Center
Wed 04:59:27 PM 40.1394 -73.7972 49° Northeast 407 468 19,900 -1,550 Descending Boston Center
Wed 05:00:27 PM 40.2242 -73.6767 47° Northeast 407 468 18,300 -1,450 Descending Boston Center
Wed 05:01:27 PM 40.2961 -73.5664 49° Northeast 402 463 17,000 -650 Descending Boston Center
Wed 05:02:27 PM 40.3703 -73.4642 46° Northeast 392 451 17,000  Level Boston Center
Wed 05:03:27 PM 40.4664 -73.4219 18° North 353 406 17,000 -372 Level Boston Center
Wed 05:04:52 PM 40.6000 -73.3667 17° North 356 410 16,100 -786 Descending New York TRACON
Wed 05:05:52 PM 40.7000 -73.3333 14° North 313 360 15,100 -550 Descending New York TRACON
Wed 05:06:52 PM 40.7667 -73.3167 11° North 301 346 15,000 -496 Descending New York TRACON
Wed 05:07:53 PM 40.8333 -73.2167 49° Northeast 326 375 14,100 -1,200 Descending New York TRACON
Wed 05:08:47 PM 40.8667 -73.1333 62° Northeast 355 409 12,700 -1,866 Descending New York TRACON
Wed 05:09:52 PM 40.9333 -73.0500 43° Northeast 287 330 10,400 -2,048 Descending New York TRACON
Wed 05:10:53 PM 40.9833 -73.0833 333° Northwest 243 280 8,400 -2,150 Descending New York TRACON
Wed 05:11:52 PM 41.0333 -73.1500 315° West 237 273 6,100 -2,150 Descending New York TRACON
Wed 05:12:53 PM 41.0667 -73.2167 304° West 238 274 4,100 -1,041 Descending New York TRACON
Wed 05:13:53 PM 41.1167 -73.2833 315° West 239 275 4,000 -50 Descending New York TRACON
Wed 05:14:53 PM 41.1500 -73.3500 304° West 247 284 4,000 -350 Level New York TRACON
Wed 05:15:53 PM 41.1167 -73.4333 242° Southwest 235 270 3,300 -504 Descending New York TRACON
Wed 05:16:52 PM 41.0667 -73.5167 232° Southwest 262 302 3,000 -555 Descending New York TRACON
Wed 05:17:52 PM 41.0333 -73.5833 236° Southwest 262 302 2,200 -645 Descending New York TRACON
Wed 05:18:53 PM 41.0167 -73.6500 252° West 170 196 1,700 -645 Descending New York TRACON
Wed 05:19:53 PM 41.0333 -73.6833 304° West 120 138 900 -800 Descending New York TRACON
Wed 05:21:00 PM 41.0667 -73.7000 236° Southwest  Level FlightAware Approximate
Wed 05:28:00 PM 41.0669 -73.7076 236° Southwest  Level Estimated
Wed 05:29:00 PM 41.0667 -73.7000 236° Southwest  Level FlightAware Approximate

Login

Don't have an account? Register now (free) for customized features, flight alerts, and more!